sensor_id;sensor_type;location;lat;lon;timestamp;P1;durP1;ratioP1;P2;durP2;ratioP2
5730;SDS011;2890;51.950;7.668;2022-09-23T00:00:44;6.63;;;4.73;;
5730;SDS011;2890;51.950;7.668;2022-09-23T00:03:12;5.30;;;4.40;;
5730;SDS011;2890;51.950;7.668;2022-09-23T00:05:41;6.40;;;5.80;;
5730;SDS011;2890;51.950;7.668;2022-09-23T00:08:09;6.30;;;5.47;;
5730;SDS011;2890;51.950;7.668;2022-09-23T00:10:37;4.93;;;4.40;;
5730;SDS011;2890;51.950;7.668;2022-09-23T00:13:04;5.03;;;4.45;;
5730;SDS011;2890;51.950;7.668;2022-09-23T00:15:31;4.87;;;4.47;;
5730;SDS011;2890;51.950;7.668;2022-09-23T00:18:04;5.75;;;4.60;;
5730;SDS011;2890;51.950;7.668;2022-09-23T00:20:32;5.40;;;4.28;;
5730;SDS011;2890;51.950;7.668;2022-09-23T00:22:59;9.82;;;4.68;;
5730;SDS011;2890;51.950;7.668;2022-09-23T00:25:25;5.10;;;4.18;;
5730;SDS011;2890;51.950;7.668;2022-09-23T00:27:53;6.93;;;6.30;;
5730;SDS011;2890;51.950;7.668;2022-09-23T00:30:20;7.80;;;4.72;;
5730;SDS011;2890;51.950;7.668;2022-09-23T00:32:47;8.38;;;5.45;;
5730;SDS011;2890;51.950;7.668;2022-09-23T00:35:15;6.78;;;5.38;;
5730;SDS011;2890;51.950;7.668;2022-09-23T00:37:42;6.33;;;5.40;;
5730;SDS011;2890;51.950;7.668;2022-09-23T00:40:09;5.73;;;5.23;;
5730;SDS011;2890;51.950;7.668;2022-09-23T00:42:37;5.17;;;3.87;;
5730;SDS011;2890;51.950;7.668;2022-09-23T00:45:10;5.83;;;4.10;;
5730;SDS011;2890;51.950;7.668;2022-09-23T00:47:38;6.67;;;5.73;;
5730;SDS011;2890;51.950;7.668;2022-09-23T00:50:11;4.85;;;4.20;;
5730;SDS011;2890;51.950;7.668;2022-09-23T00:52:43;5.40;;;5.00;;
5730;SDS011;2890;51.950;7.668;2022-09-23T00:55:11;5.80;;;4.32;;
5730;SDS011;2890;51.950;7.668;2022-09-23T00:57:41;6.78;;;5.47;;
5730;SDS011;2890;51.950;7.668;2022-09-23T01:00:10;4.30;;;3.90;;
5730;SDS011;2890;51.950;7.668;2022-09-23T01:02:38;5.67;;;4.30;;
5730;SDS011;2890;51.950;7.668;2022-09-23T01:05:06;4.50;;;4.10;;
5730;SDS011;2890;51.950;7.668;2022-09-23T01:07:33;7.00;;;4.60;;
5730;SDS011;2890;51.950;7.668;2022-09-23T01:10:02;6.75;;;5.90;;
5730;SDS011;2890;51.950;7.668;2022-09-23T01:12:34;6.88;;;4.60;;
5730;SDS011;2890;51.950;7.668;2022-09-23T01:15:17;6.03;;;4.28;;
5730;SDS011;2890;51.950;7.668;2022-09-23T01:17:48;6.15;;;5.60;;
5730;SDS011;2890;51.950;7.668;2022-09-23T01:20:32;6.73;;;5.00;;
5730;SDS011;2890;51.950;7.668;2022-09-23T01:23:41;4.50;;;3.90;;
5730;SDS011;2890;51.950;7.668;2022-09-23T01:26:42;6.03;;;5.53;;
5730;SDS011;2890;51.950;7.668;2022-09-23T01:32:30;6.07;;;4.90;;
5730;SDS011;2890;51.950;7.668;2022-09-23T01:35:12;6.60;;;5.38;;
5730;SDS011;2890;51.950;7.668;2022-09-23T01:37:49;8.05;;;5.55;;
5730;SDS011;2890;51.950;7.668;2022-09-23T01:40:24;5.78;;;5.28;;
5730;SDS011;2890;51.950;7.668;2022-09-23T01:42:57;5.18;;;4.57;;
5730;SDS011;2890;51.950;7.668;2022-09-23T01:45:31;5.33;;;4.40;;
5730;SDS011;2890;51.950;7.668;2022-09-23T01:48:03;5.25;;;4.28;;
5730;SDS011;2890;51.950;7.668;2022-09-23T01:50:37;4.65;;;4.25;;
5730;SDS011;2890;51.950;7.668;2022-09-23T01:53:24;6.15;;;4.55;;
5730;SDS011;2890;51.950;7.668;2022-09-23T01:55:58;5.22;;;4.60;;
5730;SDS011;2890;51.950;7.668;2022-09-23T01:58:29;6.43;;;4.78;;
5730;SDS011;2890;51.950;7.668;2022-09-23T02:01:01;5.88;;;5.28;;
5730;SDS011;2890;51.950;7.668;2022-09-23T02:03:33;6.40;;;4.90;;
5730;SDS011;2890;51.950;7.668;2022-09-23T02:06:01;9.85;;;5.20;;
5730;SDS011;2890;51.950;7.668;2022-09-23T02:08:33;6.03;;;4.95;;
5730;SDS011;2890;51.950;7.668;2022-09-23T02:11:05;7.00;;;4.38;;
5730;SDS011;2890;51.950;7.668;2022-09-23T02:13:36;5.87;;;4.67;;
5730;SDS011;2890;51.950;7.668;2022-09-23T02:16:14;4.72;;;4.32;;
5730;SDS011;2890;51.950;7.668;2022-09-23T02:18:52;4.97;;;4.47;;
5730;SDS011;2890;51.950;7.668;2022-09-23T02:21:23;7.18;;;4.80;;
5730;SDS011;2890;51.950;7.668;2022-09-23T02:23:57;6.40;;;5.80;;
5730;SDS011;2890;51.950;7.668;2022-09-23T02:26:30;6.05;;;4.72;;
5730;SDS011;2890;51.950;7.668;2022-09-23T02:29:03;5.43;;;4.30;;
5730;SDS011;2890;51.950;7.668;2022-09-23T02:31:35;5.97;;;4.45;;
5730;SDS011;2890;51.950;7.668;2022-09-23T02:34:11;5.65;;;4.85;;
5730;SDS011;2890;51.950;7.668;2022-09-23T02:36:45;6.40;;;5.80;;
5730;SDS011;2890;51.950;7.668;2022-09-23T02:39:19;5.83;;;5.43;;
5730;SDS011;2890;51.950;7.668;2022-09-23T02:41:52;5.20;;;4.70;;
5730;SDS011;2890;51.950;7.668;2022-09-23T02:44:24;6.88;;;4.63;;
5730;SDS011;2890;51.950;7.668;2022-09-23T02:46:52;8.13;;;6.07;;
5730;SDS011;2890;51.950;7.668;2022-09-23T02:49:23;7.00;;;4.63;;
5730;SDS011;2890;51.950;7.668;2022-09-23T02:51:52;7.70;;;5.97;;
5730;SDS011;2890;51.950;7.668;2022-09-23T02:54:20;4.90;;;4.40;;
5730;SDS011;2890;51.950;7.668;2022-09-23T02:56:50;6.70;;;5.47;;
5730;SDS011;2890;51.950;7.668;2022-09-23T02:59:18;8.77;;;4.30;;
5730;SDS011;2890;51.950;7.668;2022-09-23T03:01:52;5.97;;;5.57;;
5730;SDS011;2890;51.950;7.668;2022-09-23T03:04:34;5.70;;;4.10;;
5730;SDS011;2890;51.950;7.668;2022-09-23T03:07:09;4.00;;;3.60;;
5730;SDS011;2890;51.950;7.668;2022-09-23T03:09:43;5.23;;;3.93;;
5730;SDS011;2890;51.950;7.668;2022-09-23T03:12:18;4.28;;;3.70;;
5730;SDS011;2890;51.950;7.668;2022-09-23T03:15:01;4.33;;;3.93;;
5730;SDS011;2890;51.950;7.668;2022-09-23T03:17:38;6.77;;;3.77;;
5730;SDS011;2890;51.950;7.668;2022-09-23T03:20:13;5.53;;;5.03;;
5730;SDS011;2890;51.950;7.668;2022-09-23T03:22:50;5.80;;;5.27;;
5730;SDS011;2890;51.950;7.668;2022-09-23T03:25:22;5.47;;;5.07;;
5730;SDS011;2890;51.950;7.668;2022-09-23T03:27:50;5.97;;;5.10;;
5730;SDS011;2890;51.950;7.668;2022-09-23T03:30:21;4.40;;;4.00;;
5730;SDS011;2890;51.950;7.668;2022-09-23T03:32:49;4.30;;;3.58;;
5730;SDS011;2890;51.950;7.668;2022-09-23T03:35:18;5.67;;;3.80;;
5730;SDS011;2890;51.950;7.668;2022-09-23T03:37:46;5.40;;;4.87;;
5730;SDS011;2890;51.950;7.668;2022-09-23T03:40:19;5.30;;;4.80;;
5730;SDS011;2890;51.950;7.668;2022-09-23T03:42:49;6.20;;;5.50;;
5730;SDS011;2890;51.950;7.668;2022-09-23T03:45:17;6.33;;;3.87;;
5730;SDS011;2890;51.950;7.668;2022-09-23T03:47:47;6.00;;;5.40;;
5730;SDS011;2890;51.950;7.668;2022-09-23T03:50:14;4.90;;;3.83;;
5730;SDS011;2890;51.950;7.668;2022-09-23T03:52:43;6.00;;;5.40;;
5730;SDS011;2890;51.950;7.668;2022-09-23T03:55:11;3.90;;;3.53;;
5730;SDS011;2890;51.950;7.668;2022-09-23T03:57:40;4.70;;;4.00;;
5730;SDS011;2890;51.950;7.668;2022-09-23T04:00:07;5.33;;;4.17;;
5730;SDS011;2890;51.950;7.668;2022-09-23T04:02:35;5.95;;;3.83;;
5730;SDS011;2890;51.950;7.668;2022-09-23T04:05:02;5.07;;;3.77;;
5730;SDS011;2890;51.950;7.668;2022-09-23T04:07:30;5.90;;;5.30;;
5730;SDS011;2890;51.950;7.668;2022-09-23T04:09:58;6.87;;;4.00;;
5730;SDS011;2890;51.950;7.668;2022-09-23T04:12:25;5.17;;;4.30;;
5730;SDS011;2890;51.950;7.668;2022-09-23T04:14:51;6.30;;;5.70;;
5730;SDS011;2890;51.950;7.668;2022-09-23T04:17:18;8.50;;;5.27;;
5730;SDS011;2890;51.950;7.668;2022-09-23T04:19:45;6.20;;;5.67;;
5730;SDS011;2890;51.950;7.668;2022-09-23T04:22:12;4.80;;;3.80;;
5730;SDS011;2890;51.950;7.668;2022-09-23T04:24:39;5.05;;;4.60;;
5730;SDS011;2890;51.950;7.668;2022-09-23T04:27:07;6.00;;;5.50;;
5730;SDS011;2890;51.950;7.668;2022-09-23T04:29:33;4.50;;;4.05;;
5730;SDS011;2890;51.950;7.668;2022-09-23T04:32:00;6.07;;;4.10;;
5730;SDS011;2890;51.950;7.668;2022-09-23T04:34:27;5.13;;;4.73;;
5730;SDS011;2890;51.950;7.668;2022-09-23T04:36:54;4.50;;;4.10;;
5730;SDS011;2890;51.950;7.668;2022-09-23T04:39:21;4.85;;;4.32;;
5730;SDS011;2890;51.950;7.668;2022-09-23T04:41:48;5.70;;;5.20;;
5730;SDS011;2890;51.950;7.668;2022-09-23T04:44:16;5.77;;;4.20;;
5730;SDS011;2890;51.950;7.668;2022-09-23T04:46:43;6.23;;;5.63;;
5730;SDS011;2890;51.950;7.668;2022-09-23T04:49:12;6.07;;;5.57;;
5730;SDS011;2890;51.950;7.668;2022-09-23T04:51:39;4.50;;;4.07;;
5730;SDS011;2890;51.950;7.668;2022-09-23T04:54:08;4.73;;;3.87;;
5730;SDS011;2890;51.950;7.668;2022-09-23T04:56:35;5.60;;;4.27;;
5730;SDS011;2890;51.950;7.668;2022-09-23T04:59:03;7.87;;;5.53;;
5730;SDS011;2890;51.950;7.668;2022-09-23T05:01:32;9.02;;;5.93;;
5730;SDS011;2890;51.950;7.668;2022-09-23T05:04:00;6.27;;;5.00;;
5730;SDS011;2890;51.950;7.668;2022-09-23T05:06:30;6.17;;;4.90;;
5730;SDS011;2890;51.950;7.668;2022-09-23T05:08:59;4.90;;;4.50;;
5730;SDS011;2890;51.950;7.668;2022-09-23T05:11:27;7.03;;;4.67;;
5730;SDS011;2890;51.950;7.668;2022-09-23T05:13:56;5.63;;;5.13;;
5730;SDS011;2890;51.950;7.668;2022-09-23T05:16:23;5.67;;;4.70;;
5730;SDS011;2890;51.950;7.668;2022-09-23T05:18:52;6.73;;;6.13;;
5730;SDS011;2890;51.950;7.668;2022-09-23T05:21:19;6.47;;;5.10;;
5730;SDS011;2890;51.950;7.668;2022-09-23T05:23:48;5.80;;;5.23;;
5730;SDS011;2890;51.950;7.668;2022-09-23T05:26:18;4.10;;;3.70;;
5730;SDS011;2890;51.950;7.668;2022-09-23T05:28:45;7.07;;;5.63;;
5730;SDS011;2890;51.950;7.668;2022-09-23T05:31:12;5.80;;;4.72;;
5730;SDS011;2890;51.950;7.668;2022-09-23T05:33:41;6.10;;;5.60;;
5730;SDS011;2890;51.950;7.668;2022-09-23T05:36:11;5.07;;;4.03;;
5730;SDS011;2890;51.950;7.668;2022-09-23T05:38:38;6.13;;;4.63;;
5730;SDS011;2890;51.950;7.668;2022-09-23T05:41:06;4.07;;;3.77;;
5730;SDS011;2890;51.950;7.668;2022-09-23T05:43:35;4.83;;;4.17;;
5730;SDS011;2890;51.950;7.668;2022-09-23T05:46:03;6.57;;;4.13;;
5730;SDS011;2890;51.950;7.668;2022-09-23T05:48:31;4.35;;;3.72;;
5730;SDS011;2890;51.950;7.668;2022-09-23T05:50:59;4.68;;;3.90;;
5730;SDS011;2890;51.950;7.668;2022-09-23T05:53:28;9.43;;;5.37;;
5730;SDS011;2890;51.950;7.668;2022-09-23T05:55:55;4.87;;;3.90;;
5730;SDS011;2890;51.950;7.668;2022-09-23T05:58:23;4.50;;;4.10;;
5730;SDS011;2890;51.950;7.668;2022-09-23T06:00:50;5.83;;;5.03;;
5730;SDS011;2890;51.950;7.668;2022-09-23T06:03:18;5.60;;;5.07;;
5730;SDS011;2890;51.950;7.668;2022-09-23T06:05:45;7.60;;;5.63;;
5730;SDS011;2890;51.950;7.668;2022-09-23T06:08:13;5.83;;;5.23;;
5730;SDS011;2890;51.950;7.668;2022-09-23T06:10:42;6.57;;;4.60;;
5730;SDS011;2890;51.950;7.668;2022-09-23T06:13:10;6.43;;;5.00;;
5730;SDS011;2890;51.950;7.668;2022-09-23T06:15:37;6.83;;;5.20;;
5730;SDS011;2890;51.950;7.668;2022-09-23T06:18:04;6.53;;;5.93;;
5730;SDS011;2890;51.950;7.668;2022-09-23T06:20:32;5.37;;;4.87;;
5730;SDS011;2890;51.950;7.668;2022-09-23T06:23:01;4.73;;;4.33;;
5730;SDS011;2890;51.950;7.668;2022-09-23T06:25:29;6.27;;;4.50;;
5730;SDS011;2890;51.950;7.668;2022-09-23T06:27:58;6.97;;;5.83;;
5730;SDS011;2890;51.950;7.668;2022-09-23T06:30:25;6.47;;;5.50;;
5730;SDS011;2890;51.950;7.668;2022-09-23T06:32:53;6.53;;;5.67;;
5730;SDS011;2890;51.950;7.668;2022-09-23T06:35:21;4.10;;;3.70;;
5730;SDS011;2890;51.950;7.668;2022-09-23T06:37:49;5.00;;;4.60;;
5730;SDS011;2890;51.950;7.668;2022-09-23T06:40:16;4.30;;;3.43;;
5730;SDS011;2890;51.950;7.668;2022-09-23T06:42:43;5.13;;;4.63;;
5730;SDS011;2890;51.950;7.668;2022-09-23T06:45:12;4.93;;;4.53;;
5730;SDS011;2890;51.950;7.668;2022-09-23T06:47:40;5.40;;;4.05;;
5730;SDS011;2890;51.950;7.668;2022-09-23T06:50:08;6.00;;;3.30;;
5730;SDS011;2890;51.950;7.668;2022-09-23T06:52:37;4.68;;;4.30;;
5730;SDS011;2890;51.950;7.668;2022-09-23T06:55:04;6.30;;;3.30;;
5730;SDS011;2890;51.950;7.668;2022-09-23T06:57:32;4.50;;;3.80;;
5730;SDS011;2890;51.950;7.668;2022-09-23T07:00:00;3.95;;;3.28;;
5730;SDS011;2890;51.950;7.668;2022-09-23T07:02:28;5.05;;;3.20;;
5730;SDS011;2890;51.950;7.668;2022-09-23T07:04:55;5.07;;;4.22;;
5730;SDS011;2890;51.950;7.668;2022-09-23T07:07:22;3.92;;;3.17;;
5730;SDS011;2890;51.950;7.668;2022-09-23T07:09:50;3.97;;;3.58;;
5730;SDS011;2890;51.950;7.668;2022-09-23T07:12:17;3.50;;;2.90;;
5730;SDS011;2890;51.950;7.668;2022-09-23T07:14:44;5.43;;;3.22;;
5730;SDS011;2890;51.950;7.668;2022-09-23T07:17:11;6.00;;;3.67;;
5730;SDS011;2890;51.950;7.668;2022-09-23T07:19:39;4.25;;;2.60;;
5730;SDS011;2890;51.950;7.668;2022-09-23T07:22:06;4.22;;;2.97;;
5730;SDS011;2890;51.950;7.668;2022-09-23T07:24:33;5.18;;;2.70;;
5730;SDS011;2890;51.950;7.668;2022-09-23T07:27:00;3.78;;;2.60;;
5730;SDS011;2890;51.950;7.668;2022-09-23T07:29:26;2.90;;;2.60;;
5730;SDS011;2890;51.950;7.668;2022-09-23T07:31:53;2.85;;;2.20;;
5730;SDS011;2890;51.950;7.668;2022-09-23T07:34:20;3.65;;;2.25;;
5730;SDS011;2890;51.950;7.668;2022-09-23T07:36:49;4.05;;;3.10;;
5730;SDS011;2890;51.950;7.668;2022-09-23T07:39:16;4.45;;;2.50;;
5730;SDS011;2890;51.950;7.668;2022-09-23T07:41:42;3.22;;;2.92;;
5730;SDS011;2890;51.950;7.668;2022-09-23T07:44:09;2.90;;;2.60;;
5730;SDS011;2890;51.950;7.668;2022-09-23T07:46:40;4.72;;;2.72;;
5730;SDS011;2890;51.950;7.668;2022-09-23T07:49:07;5.97;;;2.50;;
5730;SDS011;2890;51.950;7.668;2022-09-23T07:51:35;3.00;;;2.70;;
5730;SDS011;2890;51.950;7.668;2022-09-23T07:54:06;3.42;;;2.60;;
5730;SDS011;2890;51.950;7.668;2022-09-23T07:56:34;4.45;;;3.03;;
5730;SDS011;2890;51.950;7.668;2022-09-23T07:59:01;4.72;;;2.47;;
5730;SDS011;2890;51.950;7.668;2022-09-23T08:01:29;4.25;;;2.22;;
5730;SDS011;2890;51.950;7.668;2022-09-23T08:03:57;3.22;;;2.35;;
5730;SDS011;2890;51.950;7.668;2022-09-23T08:06:25;4.95;;;2.80;;
5730;SDS011;2890;51.950;7.668;2022-09-23T08:08:52;3.95;;;3.05;;
5730;SDS011;2890;51.950;7.668;2022-09-23T08:11:22;3.47;;;2.30;;
5730;SDS011;2890;51.950;7.668;2022-09-23T08:13:49;3.45;;;3.00;;
5730;SDS011;2890;51.950;7.668;2022-09-23T08:16:17;3.05;;;2.72;;
5730;SDS011;2890;51.950;7.668;2022-09-23T08:18:44;3.63;;;2.42;;
5730;SDS011;2890;51.950;7.668;2022-09-23T08:21:17;2.35;;;2.15;;
5730;SDS011;2890;51.950;7.668;2022-09-23T08:23:44;5.18;;;2.38;;
5730;SDS011;2890;51.950;7.668;2022-09-23T08:26:11;3.22;;;2.25;;
5730;SDS011;2890;51.950;7.668;2022-09-23T08:28:42;3.60;;;2.45;;
5730;SDS011;2890;51.950;7.668;2022-09-23T08:31:09;5.47;;;2.40;;
5730;SDS011;2890;51.950;7.668;2022-09-23T08:33:37;5.82;;;2.40;;
5730;SDS011;2890;51.950;7.668;2022-09-23T08:36:05;2.85;;;2.40;;
5730;SDS011;2890;51.950;7.668;2022-09-23T08:38:32;3.50;;;2.70;;
5730;SDS011;2890;51.950;7.668;2022-09-23T08:41:04;4.18;;;2.42;;
5730;SDS011;2890;51.950;7.668;2022-09-23T08:43:31;4.70;;;2.10;;
5730;SDS011;2890;51.950;7.668;2022-09-23T08:46:01;5.28;;;3.08;;
5730;SDS011;2890;51.950;7.668;2022-09-23T08:48:29;4.13;;;2.45;;
5730;SDS011;2890;51.950;7.668;2022-09-23T08:50:57;3.47;;;2.50;;
5730;SDS011;2890;51.950;7.668;2022-09-23T08:53:27;6.75;;;2.10;;
5730;SDS011;2890;51.950;7.668;2022-09-23T08:55:57;2.72;;;2.53;;
5730;SDS011;2890;51.950;7.668;2022-09-23T08:58:30;4.35;;;2.35;;
5730;SDS011;2890;51.950;7.668;2022-09-23T09:01:04;4.85;;;2.72;;
5730;SDS011;2890;51.950;7.668;2022-09-23T09:03:39;3.70;;;2.60;;
5730;SDS011;2890;51.950;7.668;2022-09-23T09:06:11;4.82;;;2.80;;
5730;SDS011;2890;51.950;7.668;2022-09-23T09:08:43;7.78;;;3.17;;
5730;SDS011;2890;51.950;7.668;2022-09-23T09:11:16;3.78;;;2.22;;
5730;SDS011;2890;51.950;7.668;2022-09-23T09:13:45;4.78;;;3.33;;
5730;SDS011;2890;51.950;7.668;2022-09-23T09:16:30;3.70;;;3.33;;
5730;SDS011;2890;51.950;7.668;2022-09-23T09:19:18;6.60;;;5.53;;
5730;SDS011;2890;51.950;7.668;2022-09-23T09:21:46;5.40;;;4.10;;
5730;SDS011;2890;51.950;7.668;2022-09-23T09:24:16;6.25;;;2.83;;
5730;SDS011;2890;51.950;7.668;2022-09-23T09:26:46;5.03;;;3.60;;
5730;SDS011;2890;51.950;7.668;2022-09-23T09:29:14;3.75;;;3.45;;
5730;SDS011;2890;51.950;7.668;2022-09-23T09:31:47;6.75;;;3.65;;
5730;SDS011;2890;51.950;7.668;2022-09-23T09:34:18;5.47;;;2.88;;
5730;SDS011;2890;51.950;7.668;2022-09-23T09:36:53;6.22;;;3.83;;
5730;SDS011;2890;51.950;7.668;2022-09-23T09:39:30;3.45;;;2.90;;
5730;SDS011;2890;51.950;7.668;2022-09-23T09:41:57;4.15;;;2.83;;
5730;SDS011;2890;51.950;7.668;2022-09-23T09:44:26;4.43;;;3.08;;
5730;SDS011;2890;51.950;7.668;2022-09-23T09:47:04;2.85;;;2.50;;
5730;SDS011;2890;51.950;7.668;2022-09-23T09:49:41;4.15;;;3.25;;
5730;SDS011;2890;51.950;7.668;2022-09-23T09:52:18;3.92;;;3.58;;
5730;SDS011;2890;51.950;7.668;2022-09-23T09:54:46;6.15;;;3.83;;
5730;SDS011;2890;51.950;7.668;2022-09-23T09:57:21;2.97;;;2.55;;
5730;SDS011;2890;51.950;7.668;2022-09-23T09:59:55;4.38;;;3.03;;
5730;SDS011;2890;51.950;7.668;2022-09-23T10:02:25;6.60;;;3.05;;
5730;SDS011;2890;51.950;7.668;2022-09-23T10:04:58;3.35;;;3.05;;
5730;SDS011;2890;51.950;7.668;2022-09-23T10:07:28;5.07;;;3.67;;
5730;SDS011;2890;51.950;7.668;2022-09-23T10:09:56;3.78;;;3.05;;
5730;SDS011;2890;51.950;7.668;2022-09-23T10:12:25;6.18;;;2.90;;
5730;SDS011;2890;51.950;7.668;2022-09-23T10:14:54;3.53;;;3.22;;
5730;SDS011;2890;51.950;7.668;2022-09-23T10:17:22;4.82;;;3.00;;
5730;SDS011;2890;51.950;7.668;2022-09-23T10:19:56;3.83;;;3.42;;
5730;SDS011;2890;51.950;7.668;2022-09-23T10:22:25;4.10;;;3.15;;
5730;SDS011;2890;51.950;7.668;2022-09-23T10:24:57;5.15;;;2.35;;
5730;SDS011;2890;51.950;7.668;2022-09-23T10:27:30;4.53;;;2.45;;
5730;SDS011;2890;51.950;7.668;2022-09-23T10:30:00;2.60;;;2.10;;
5730;SDS011;2890;51.950;7.668;2022-09-23T10:32:31;3.63;;;2.42;;
5730;SDS011;2890;51.950;7.668;2022-09-23T10:35:02;4.97;;;2.47;;
5730;SDS011;2890;51.950;7.668;2022-09-23T10:37:39;4.82;;;2.20;;
5730;SDS011;2890;51.950;7.668;2022-09-23T10:40:12;3.60;;;2.45;;
5730;SDS011;2890;51.950;7.668;2022-09-23T10:43:05;2.42;;;2.22;;
5730;SDS011;2890;51.950;7.668;2022-09-23T10:46:11;3.58;;;3.28;;
5730;SDS011;2890;51.950;7.668;2022-09-23T10:49:07;2.30;;;1.92;;
5730;SDS011;2890;51.950;7.668;2022-09-23T10:51:49;2.85;;;2.65;;
5730;SDS011;2890;51.950;7.668;2022-09-23T10:54:26;3.25;;;2.20;;
5730;SDS011;2890;51.950;7.668;2022-09-23T10:56:59;2.90;;;2.33;;
5730;SDS011;2890;51.950;7.668;2022-09-23T10:59:51;3.22;;;2.85;;
5730;SDS011;2890;51.950;7.668;2022-09-23T11:02:32;2.58;;;2.17;;
5730;SDS011;2890;51.950;7.668;2022-09-23T11:05:20;3.10;;;2.13;;
5730;SDS011;2890;51.950;7.668;2022-09-23T11:08:02;3.85;;;2.38;;
5730;SDS011;2890;51.950;7.668;2022-09-23T11:10:53;4.80;;;3.25;;
5730;SDS011;2890;51.950;7.668;2022-09-23T11:13:43;4.43;;;2.35;;
5730;SDS011;2890;51.950;7.668;2022-09-23T11:16:34;2.92;;;2.53;;
5730;SDS011;2890;51.950;7.668;2022-09-23T11:19:13;3.72;;;2.50;;
5730;SDS011;2890;51.950;7.668;2022-09-23T11:22:15;9.10;;;2.60;;
5730;SDS011;2890;51.950;7.668;2022-09-23T11:31:04;3.25;;;2.45;;
5730;SDS011;2890;51.950;7.668;2022-09-23T11:33:43;7.93;;;2.47;;
5730;SDS011;2890;51.950;7.668;2022-09-23T11:36:26;3.90;;;2.75;;
5730;SDS011;2890;51.950;7.668;2022-09-23T11:39:01;3.38;;;2.55;;
5730;SDS011;2890;51.950;7.668;2022-09-23T11:41:33;4.43;;;3.10;;
5730;SDS011;2890;51.950;7.668;2022-09-23T11:44:05;4.60;;;3.08;;
5730;SDS011;2890;51.950;7.668;2022-09-23T11:46:39;6.22;;;2.67;;
5730;SDS011;2890;51.950;7.668;2022-09-23T11:49:10;3.90;;;3.60;;
5730;SDS011;2890;51.950;7.668;2022-09-23T11:51:41;6.43;;;2.95;;
5730;SDS011;2890;51.950;7.668;2022-09-23T11:54:26;4.70;;;4.13;;
5730;SDS011;2890;51.950;7.668;2022-09-23T11:56:57;4.47;;;3.00;;
5730;SDS011;2890;51.950;7.668;2022-09-23T11:59:30;5.57;;;2.67;;
5730;SDS011;2890;51.950;7.668;2022-09-23T12:02:02;4.07;;;2.85;;
5730;SDS011;2890;51.950;7.668;2022-09-23T12:04:37;3.20;;;2.55;;
5730;SDS011;2890;51.950;7.668;2022-09-23T12:07:09;4.20;;;2.95;;
5730;SDS011;2890;51.950;7.668;2022-09-23T12:09:43;6.50;;;3.60;;
5730;SDS011;2890;51.950;7.668;2022-09-23T12:12:20;3.67;;;2.72;;
5730;SDS011;2890;51.950;7.668;2022-09-23T12:14:54;5.75;;;4.07;;
5730;SDS011;2890;51.950;7.668;2022-09-23T12:17:30;4.32;;;2.92;;
5730;SDS011;2890;51.950;7.668;2022-09-23T12:20:20;2.38;;;2.08;;
5730;SDS011;2890;51.950;7.668;2022-09-23T12:23:09;3.35;;;2.60;;
5730;SDS011;2890;51.950;7.668;2022-09-23T12:25:53;3.92;;;3.53;;
5730;SDS011;2890;51.950;7.668;2022-09-23T12:28:23;5.00;;;3.75;;
5730;SDS011;2890;51.950;7.668;2022-09-23T12:30:53;7.18;;;3.42;;
5730;SDS011;2890;51.950;7.668;2022-09-23T12:33:24;4.05;;;2.80;;
5730;SDS011;2890;51.950;7.668;2022-09-23T12:35:53;3.92;;;3.58;;
5730;SDS011;2890;51.950;7.668;2022-09-23T12:38:29;3.85;;;2.88;;
5730;SDS011;2890;51.950;7.668;2022-09-23T12:41:00;2.58;;;2.38;;
5730;SDS011;2890;51.950;7.668;2022-09-23T12:43:48;3.90;;;2.80;;
5730;SDS011;2890;51.950;7.668;2022-09-23T12:46:18;4.35;;;2.90;;
5730;SDS011;2890;51.950;7.668;2022-09-23T12:48:56;3.60;;;2.30;;
5730;SDS011;2890;51.950;7.668;2022-09-23T12:51:25;3.78;;;2.60;;
5730;SDS011;2890;51.950;7.668;2022-09-23T12:53:54;6.15;;;2.95;;
5730;SDS011;2890;51.950;7.668;2022-09-23T12:56:26;3.28;;;2.63;;
5730;SDS011;2890;51.950;7.668;2022-09-23T12:59:24;4.63;;;2.25;;
5730;SDS011;2890;51.950;7.668;2022-09-23T13:01:52;3.85;;;2.10;;
5730;SDS011;2890;51.950;7.668;2022-09-23T13:04:33;5.60;;;2.50;;
5730;SDS011;2890;51.950;7.668;2022-09-23T13:07:27;3.75;;;2.03;;
5730;SDS011;2890;51.950;7.668;2022-09-23T13:10:03;3.20;;;2.33;;
5730;SDS011;2890;51.950;7.668;2022-09-23T13:12:36;3.80;;;2.33;;
5730;SDS011;2890;51.950;7.668;2022-09-23T13:15:11;2.85;;;2.38;;
5730;SDS011;2890;51.950;7.668;2022-09-23T13:17:43;2.42;;;2.20;;
5730;SDS011;2890;51.950;7.668;2022-09-23T13:23:04;5.45;;;2.83;;
5730;SDS011;2890;51.950;7.668;2022-09-23T13:25:46;2.28;;;2.08;;
5730;SDS011;2890;51.950;7.668;2022-09-23T13:28:27;2.50;;;2.17;;
5730;SDS011;2890;51.950;7.668;2022-09-23T13:30:57;2.78;;;2.30;;
5730;SDS011;2890;51.950;7.668;2022-09-23T13:33:30;4.55;;;2.70;;
5730;SDS011;2890;51.950;7.668;2022-09-23T13:36:02;4.57;;;2.92;;
5730;SDS011;2890;51.950;7.668;2022-09-23T13:38:34;3.25;;;2.58;;
5730;SDS011;2890;51.950;7.668;2022-09-23T13:41:02;3.97;;;2.28;;
5730;SDS011;2890;51.950;7.668;2022-09-23T13:43:35;4.22;;;2.40;;
5730;SDS011;2890;51.950;7.668;2022-09-23T13:46:07;4.03;;;2.83;;
5730;SDS011;2890;51.950;7.668;2022-09-23T13:48:38;7.32;;;2.53;;
5730;SDS011;2890;51.950;7.668;2022-09-23T13:51:07;3.33;;;2.50;;
5730;SDS011;2890;51.950;7.668;2022-09-23T13:53:35;3.78;;;3.47;;
5730;SDS011;2890;51.950;7.668;2022-09-23T13:56:05;3.08;;;2.28;;
5730;SDS011;2890;51.950;7.668;2022-09-23T13:58:38;3.22;;;2.50;;
5730;SDS011;2890;51.950;7.668;2022-09-23T14:01:06;3.30;;;2.35;;
5730;SDS011;2890;51.950;7.668;2022-09-23T14:03:34;3.83;;;2.60;;
5730;SDS011;2890;51.950;7.668;2022-09-23T14:06:04;4.80;;;2.13;;
5730;SDS011;2890;51.950;7.668;2022-09-23T14:08:34;6.10;;;2.53;;
5730;SDS011;2890;51.950;7.668;2022-09-23T14:11:03;3.78;;;2.22;;
5730;SDS011;2890;51.950;7.668;2022-09-23T14:13:31;2.60;;;2.22;;
5730;SDS011;2890;51.950;7.668;2022-09-23T14:16:07;4.28;;;2.03;;
5730;SDS011;2890;51.950;7.668;2022-09-23T14:18:39;4.97;;;2.95;;
5730;SDS011;2890;51.950;7.668;2022-09-23T14:23:59;2.58;;;2.25;;
5730;SDS011;2890;51.950;7.668;2022-09-23T14:26:37;3.63;;;2.13;;
5730;SDS011;2890;51.950;7.668;2022-09-23T14:29:07;5.43;;;2.45;;
5730;SDS011;2890;51.950;7.668;2022-09-23T14:31:40;3.60;;;2.10;;
5730;SDS011;2890;51.950;7.668;2022-09-23T14:37:08;5.07;;;2.22;;
5730;SDS011;2890;51.950;7.668;2022-09-23T14:40:02;2.25;;;1.90;;
5730;SDS011;2890;51.950;7.668;2022-09-23T14:42:35;2.67;;;2.33;;
5730;SDS011;2890;51.950;7.668;2022-09-23T14:45:05;5.05;;;2.00;;
5730;SDS011;2890;51.950;7.668;2022-09-23T14:47:35;2.72;;;2.30;;
5730;SDS011;2890;51.950;7.668;2022-09-23T14:50:02;2.75;;;2.28;;
5730;SDS011;2890;51.950;7.668;2022-09-23T14:52:48;3.40;;;2.10;;
5730;SDS011;2890;51.950;7.668;2022-09-23T14:55:15;2.70;;;2.20;;
5730;SDS011;2890;51.950;7.668;2022-09-23T14:57:42;4.18;;;2.28;;
5730;SDS011;2890;51.950;7.668;2022-09-23T15:00:12;3.72;;;2.38;;
5730;SDS011;2890;51.950;7.668;2022-09-23T15:02:44;5.40;;;2.08;;
5730;SDS011;2890;51.950;7.668;2022-09-23T15:05:29;4.65;;;2.15;;
5730;SDS011;2890;51.950;7.668;2022-09-23T15:08:04;3.95;;;2.38;;
5730;SDS011;2890;51.950;7.668;2022-09-23T15:10:32;4.10;;;2.25;;
5730;SDS011;2890;51.950;7.668;2022-09-23T15:13:03;4.85;;;2.25;;
5730;SDS011;2890;51.950;7.668;2022-09-23T15:15:33;3.17;;;2.22;;
5730;SDS011;2890;51.950;7.668;2022-09-23T15:18:03;8.20;;;2.42;;
5730;SDS011;2890;51.950;7.668;2022-09-23T15:20:32;2.75;;;2.05;;
5730;SDS011;2890;51.950;7.668;2022-09-23T15:22:59;4.95;;;2.08;;
5730;SDS011;2890;51.950;7.668;2022-09-23T15:25:30;3.20;;;2.30;;
5730;SDS011;2890;51.950;7.668;2022-09-23T15:28:03;3.10;;;2.15;;
5730;SDS011;2890;51.950;7.668;2022-09-23T15:30:42;4.35;;;2.13;;
5730;SDS011;2890;51.950;7.668;2022-09-23T15:33:12;2.58;;;2.10;;
5730;SDS011;2890;51.950;7.668;2022-09-23T15:35:39;5.63;;;2.45;;
5730;SDS011;2890;51.950;7.668;2022-09-23T15:38:10;6.55;;;2.00;;
5730;SDS011;2890;51.950;7.668;2022-09-23T15:40:37;3.13;;;2.42;;
5730;SDS011;2890;51.950;7.668;2022-09-23T15:43:08;7.82;;;2.50;;
5730;SDS011;2890;51.950;7.668;2022-09-23T15:45:41;3.90;;;2.28;;
5730;SDS011;2890;51.950;7.668;2022-09-23T15:48:12;3.90;;;2.00;;
5730;SDS011;2890;51.950;7.668;2022-09-23T15:50:40;3.67;;;2.40;;
5730;SDS011;2890;51.950;7.668;2022-09-23T15:53:09;3.80;;;2.00;;
5730;SDS011;2890;51.950;7.668;2022-09-23T15:55:43;3.63;;;2.20;;
5730;SDS011;2890;51.950;7.668;2022-09-23T15:58:15;2.83;;;2.00;;
5730;SDS011;2890;51.950;7.668;2022-09-23T16:00:42;2.00;;;1.80;;